sensor_id;sensor_type;location;lat;lon;timestamp;pressure;altitude;pressure_sealevel;temperature;humidity
54806;BME280;62866;55.776;37.496;2023-02-04T00:00:48;99258.41;;;1.09;85.37
54806;BME280;62866;55.776;37.496;2023-02-04T00:03:14;99257.88;;;1.05;85.32
54806;BME280;62866;55.776;37.496;2023-02-04T00:05:41;99267.56;;;1.05;85.68
54806;BME280;62866;55.776;37.496;2023-02-04T00:08:07;99265.91;;;1.04;85.19
54806;BME280;62866;55.776;37.496;2023-02-04T00:10:33;99270.91;;;0.97;85.44
54806;BME280;62866;55.776;37.496;2023-02-04T00:12:59;99262.19;;;0.97;85.54
54806;BME280;62866;55.776;37.496;2023-02-04T00:15:24;99263.69;;;0.99;85.32
54806;BME280;62866;55.776;37.496;2023-02-04T00:17:50;99267.84;;;1.02;85.17
54806;BME280;62866;55.776;37.496;2023-02-04T00:20:16;99268.53;;;1.04;85.06
54806;BME280;62866;55.776;37.496;2023-02-04T00:22:42;99270.91;;;1.07;85.27
54806;BME280;62866;55.776;37.496;2023-02-04T00:25:08;99270.75;;;1.08;85.28
54806;BME280;62866;55.776;37.496;2023-02-04T00:27:34;99256.34;;;1.03;85.06
54806;BME280;62866;55.776;37.496;2023-02-04T00:29:59;99284.03;;;1.17;85.20
54806;BME280;62866;55.776;37.496;2023-02-04T00:32:25;99281.94;;;1.10;85.31
54806;BME280;62866;55.776;37.496;2023-02-04T00:34:50;99284.72;;;1.19;85.48
54806;BME280;62866;55.776;37.496;2023-02-04T00:37:17;99288.03;;;1.21;85.11
54806;BME280;62866;55.776;37.496;2023-02-04T00:39:43;99280.16;;;1.21;84.66
54806;BME280;62866;55.776;37.496;2023-02-04T00:42:09;99286.94;;;1.13;84.72
54806;BME280;62866;55.776;37.496;2023-02-04T00:44:34;99289.16;;;1.18;84.42
54806;BME280;62866;55.776;37.496;2023-02-04T00:47:01;99290.81;;;1.19;84.77
54806;BME280;62866;55.776;37.496;2023-02-04T00:49:26;99300.13;;;1.13;84.65
54806;BME280;62866;55.776;37.496;2023-02-04T00:51:52;99295.94;;;1.21;84.78
54806;BME280;62866;55.776;37.496;2023-02-04T00:54:17;99294.00;;;1.23;84.45
54806;BME280;62866;55.776;37.496;2023-02-04T00:56:43;99308.84;;;1.24;83.78
54806;BME280;62866;55.776;37.496;2023-02-04T00:59:09;99306.19;;;1.24;83.86
54806;BME280;62866;55.776;37.496;2023-02-04T01:01:35;99289.97;;;1.19;83.65
54806;BME280;62866;55.776;37.496;2023-02-04T01:04:01;99294.41;;;1.28;84.09
54806;BME280;62866;55.776;37.496;2023-02-04T01:06:27;99308.41;;;1.28;84.09
54806;BME280;62866;55.776;37.496;2023-02-04T01:08:52;99311.03;;;1.28;84.20
54806;BME280;62866;55.776;37.496;2023-02-04T01:11:18;99300.13;;;1.13;84.12
54806;BME280;62866;55.776;37.496;2023-02-04T01:13:44;99305.94;;;1.17;83.97
54806;BME280;62866;55.776;37.496;2023-02-04T01:16:10;99294.00;;;1.13;84.52
54806;BME280;62866;55.776;37.496;2023-02-04T01:18:35;99308.28;;;1.20;84.41
54806;BME280;62866;55.776;37.496;2023-02-04T01:21:01;99303.97;;;1.19;84.23
54806;BME280;62866;55.776;37.496;2023-02-04T01:23:27;99299.53;;;1.20;84.01
54806;BME280;62866;55.776;37.496;2023-02-04T01:25:52;99303.44;;;1.16;84.21
54806;BME280;62866;55.776;37.496;2023-02-04T01:28:18;99309.41;;;1.08;83.90
54806;BME280;62866;55.776;37.496;2023-02-04T01:30:43;99303.31;;;0.98;83.71
54806;BME280;62866;55.776;37.496;2023-02-04T01:33:09;99314.56;;;1.00;84.20
54806;BME280;62866;55.776;37.496;2023-02-04T01:35:35;99308.59;;;0.88;84.12
54806;BME280;62866;55.776;37.496;2023-02-04T01:38:00;99310.09;;;0.81;84.55
54806;BME280;62866;55.776;37.496;2023-02-04T01:40:26;99318.53;;;0.85;84.62
54806;BME280;62866;55.776;37.496;2023-02-04T01:42:52;99311.78;;;0.82;84.45
54806;BME280;62866;55.776;37.496;2023-02-04T01:45:18;99317.88;;;0.83;84.47
54806;BME280;62866;55.776;37.496;2023-02-04T01:47:44;99309.00;;;0.64;84.30
54806;BME280;62866;55.776;37.496;2023-02-04T01:50:12;99330.31;;;0.81;84.29
54806;BME280;62866;55.776;37.496;2023-02-04T01:52:39;99334.50;;;0.83;84.64
54806;BME280;62866;55.776;37.496;2023-02-04T01:55:17;99340.72;;;0.92;84.62
54806;BME280;62866;55.776;37.496;2023-02-04T01:57:43;99341.69;;;0.91;84.44
54806;BME280;62866;55.776;37.496;2023-02-04T02:00:26;99341.41;;;0.84;84.61
54806;BME280;62866;55.776;37.496;2023-02-04T02:02:53;99349.59;;;0.91;84.81
54806;BME280;62866;55.776;37.496;2023-02-04T02:05:22;99340.03;;;0.90;84.60
54806;BME280;62866;55.776;37.496;2023-02-04T02:07:50;99364.97;;;0.95;84.68
54806;BME280;62866;55.776;37.496;2023-02-04T02:10:17;99345.00;;;0.93;84.31
54806;BME280;62866;55.776;37.496;2023-02-04T02:12:44;99359.44;;;0.98;84.38
54806;BME280;62866;55.776;37.496;2023-02-04T02:15:11;99361.50;;;1.04;84.71
54806;BME280;62866;55.776;37.496;2023-02-04T02:17:37;99361.50;;;1.04;84.34
54806;BME280;62866;55.776;37.496;2023-02-04T02:20:05;99348.59;;;1.01;84.42
54806;BME280;62866;55.776;37.496;2023-02-04T02:25:35;99365.66;;;0.97;83.99
54806;BME280;62866;55.776;37.496;2023-02-04T02:28:02;99364.81;;;0.87;84.07
54806;BME280;62866;55.776;37.496;2023-02-04T02:30:29;99373.81;;;0.94;84.66
54806;BME280;62866;55.776;37.496;2023-02-04T02:32:55;99367.47;;;0.97;84.63
54806;BME280;62866;55.776;37.496;2023-02-04T02:35:22;99374.94;;;1.01;84.40
54806;BME280;62866;55.776;37.496;2023-02-04T02:37:47;99370.09;;;0.97;84.54
54806;BME280;62866;55.776;37.496;2023-02-04T02:40:13;99382.41;;;0.96;84.63
54806;BME280;62866;55.776;37.496;2023-02-04T02:42:39;99378.81;;;1.07;84.31
54806;BME280;62866;55.776;37.496;2023-02-04T02:45:17;99366.75;;;1.04;84.14
54806;BME280;62866;55.776;37.496;2023-02-04T02:47:43;99374.66;;;1.04;84.17
54806;BME280;62866;55.776;37.496;2023-02-04T02:50:14;99393.34;;;1.01;83.99
54806;BME280;62866;55.776;37.496;2023-02-04T02:52:40;99377.41;;;0.93;84.26
54806;BME280;62866;55.776;37.496;2023-02-04T02:55:13;99385.31;;;0.93;84.21
54806;BME280;62866;55.776;37.496;2023-02-04T02:57:39;99390.16;;;0.79;84.16
54806;BME280;62866;55.776;37.496;2023-02-04T03:02:44;99387.25;;;0.82;84.80
54806;BME280;62866;55.776;37.496;2023-02-04T03:05:10;99379.22;;;0.73;84.79
54806;BME280;62866;55.776;37.496;2023-02-04T03:07:36;99386.16;;;0.74;84.30
54806;BME280;62866;55.776;37.496;2023-02-04T03:10:03;99405.09;;;0.78;84.37
54806;BME280;62866;55.776;37.496;2023-02-04T03:12:28;99390.97;;;0.79;84.65
54806;BME280;62866;55.776;37.496;2023-02-04T03:14:54;99388.91;;;0.73;84.56
54806;BME280;62866;55.776;37.496;2023-02-04T03:17:20;99404.69;;;0.73;84.60
54806;BME280;62866;55.776;37.496;2023-02-04T03:19:47;99395.25;;;0.70;84.78
54806;BME280;62866;55.776;37.496;2023-02-04T03:22:13;99400.94;;;0.75;84.85
54806;BME280;62866;55.776;37.496;2023-02-04T03:24:39;99406.50;;;0.72;84.79
54806;BME280;62866;55.776;37.496;2023-02-04T03:27:05;99408.03;;;0.75;84.84
54806;BME280;62866;55.776;37.496;2023-02-04T03:29:30;99402.06;;;0.73;84.78
54806;BME280;62866;55.776;37.496;2023-02-04T03:31:56;99402.47;;;0.78;84.89
54806;BME280;62866;55.776;37.496;2023-02-04T03:34:24;99405.81;;;0.80;84.91
54806;BME280;62866;55.776;37.496;2023-02-04T03:36:49;99404.94;;;0.70;84.94
54806;BME280;62866;55.776;37.496;2023-02-04T03:39:15;99416.72;;;0.66;84.42
54806;BME280;62866;55.776;37.496;2023-02-04T03:41:41;99414.94;;;0.66;84.77
54806;BME280;62866;55.776;37.496;2023-02-04T03:44:06;99427.53;;;0.72;84.77
54806;BME280;62866;55.776;37.496;2023-02-04T03:46:32;99427.66;;;0.71;84.82
54806;BME280;62866;55.776;37.496;2023-02-04T03:48:57;99427.22;;;0.56;84.86
54806;BME280;62866;55.776;37.496;2023-02-04T03:51:23;99421.25;;;0.54;85.30
54806;BME280;62866;55.776;37.496;2023-02-04T03:53:48;99421.97;;;0.56;85.13
54806;BME280;62866;55.776;37.496;2023-02-04T03:56:14;99431.94;;;0.62;85.27
54806;BME280;62866;55.776;37.496;2023-02-04T03:58:40;99432.22;;;0.69;85.43
54806;BME280;62866;55.776;37.496;2023-02-04T04:01:05;99436.66;;;0.68;85.25
54806;BME280;62866;55.776;37.496;2023-02-04T04:03:31;99433.72;;;0.62;85.08
54806;BME280;62866;55.776;37.496;2023-02-04T04:05:57;99436.94;;;0.65;85.14
54806;BME280;62866;55.776;37.496;2023-02-04T04:08:22;99428.72;;;0.59;85.37
54806;BME280;62866;55.776;37.496;2023-02-04T04:10:48;99447.59;;;0.64;85.31
54806;BME280;62866;55.776;37.496;2023-02-04T04:13:13;99426.09;;;0.49;85.61
54806;BME280;62866;55.776;37.496;2023-02-04T04:15:39;99452.75;;;0.75;85.50
54806;BME280;62866;55.776;37.496;2023-02-04T04:18:04;99446.50;;;0.76;85.49
54806;BME280;62866;55.776;37.496;2023-02-04T04:20:30;99452.34;;;0.80;85.07
54806;BME280;62866;55.776;37.496;2023-02-04T04:22:55;99454.72;;;0.83;85.17
54806;BME280;62866;55.776;37.496;2023-02-04T04:25:21;99461.94;;;0.90;85.01
54806;BME280;62866;55.776;37.496;2023-02-04T04:27:46;99448.31;;;0.85;84.87
54806;BME280;62866;55.776;37.496;2023-02-04T04:30:12;99461.50;;;0.95;84.96
54806;BME280;62866;55.776;37.496;2023-02-04T04:32:38;99462.78;;;1.00;84.58
54806;BME280;62866;55.776;37.496;2023-02-04T04:35:03;99469.44;;;1.04;84.60
54806;BME280;62866;55.776;37.496;2023-02-04T04:37:29;99463.34;;;1.04;84.49
54806;BME280;62866;55.776;37.496;2023-02-04T04:39:54;99469.31;;;1.06;84.61
54806;BME280;62866;55.776;37.496;2023-02-04T04:42:20;99465.56;;;1.08;84.90
54806;BME280;62866;55.776;37.496;2023-02-04T04:44:45;99470.69;;;1.10;84.59
54806;BME280;62866;55.776;37.496;2023-02-04T04:47:11;99473.59;;;1.07;84.43
54806;BME280;62866;55.776;37.496;2023-02-04T04:49:36;99477.75;;;1.09;84.49
54806;BME280;62866;55.776;37.496;2023-02-04T04:52:02;99477.63;;;1.11;84.41
54806;BME280;62866;55.776;37.496;2023-02-04T04:54:28;99478.06;;;1.16;84.87
54806;BME280;62866;55.776;37.496;2023-02-04T04:56:53;99489.97;;;1.20;84.79
54806;BME280;62866;55.776;37.496;2023-02-04T04:59:19;99481.09;;;1.21;84.48
54806;BME280;62866;55.776;37.496;2023-02-04T05:01:44;99466.69;;;1.16;84.70
54806;BME280;62866;55.776;37.496;2023-02-04T05:04:10;99473.06;;;1.23;84.61
54806;BME280;62866;55.776;37.496;2023-02-04T05:06:35;99493.44;;;1.30;84.24
54806;BME280;62866;55.776;37.496;2023-02-04T05:09:01;99492.88;;;1.27;84.08
54806;BME280;62866;55.776;37.496;2023-02-04T05:11:26;99493.41;;;1.11;84.06
54806;BME280;62866;55.776;37.496;2023-02-04T05:13:52;99493.97;;;1.14;84.23
54806;BME280;62866;55.776;37.496;2023-02-04T05:16:17;99490.53;;;1.14;84.71
54806;BME280;62866;55.776;37.496;2023-02-04T05:18:43;99505.50;;;1.23;84.58
54806;BME280;62866;55.776;37.496;2023-02-04T05:21:08;99504.13;;;1.29;84.39
54806;BME280;62866;55.776;37.496;2023-02-04T05:23:34;99504.81;;;1.31;84.39
54806;BME280;62866;55.776;37.496;2023-02-04T05:26:00;99514.78;;;1.37;84.22
54806;BME280;62866;55.776;37.496;2023-02-04T05:28:26;99520.34;;;1.34;84.21
54806;BME280;62866;55.776;37.496;2023-02-04T05:30:51;99519.09;;;1.28;84.16
54806;BME280;62866;55.776;37.496;2023-02-04T05:33:17;99520.63;;;1.31;84.30
54806;BME280;62866;55.776;37.496;2023-02-04T05:35:43;99517.97;;;1.31;84.20
54806;BME280;62866;55.776;37.496;2023-02-04T05:38:08;99523.25;;;1.31;84.25
54806;BME280;62866;55.776;37.496;2023-02-04T05:40:34;99529.06;;;1.34;84.53
54806;BME280;62866;55.776;37.496;2023-02-04T05:43:00;99530.19;;;1.32;84.11
54806;BME280;62866;55.776;37.496;2023-02-04T05:45:25;99530.16;;;1.22;84.09
54806;BME280;62866;55.776;37.496;2023-02-04T05:47:51;99524.91;;;1.22;84.15
54806;BME280;62866;55.776;37.496;2023-02-04T05:50:17;99535.97;;;1.26;83.78
54806;BME280;62866;55.776;37.496;2023-02-04T05:52:42;99534.59;;;1.22;84.01
54806;BME280;62866;55.776;37.496;2023-02-04T05:55:10;99539.44;;;1.17;83.82
54806;BME280;62866;55.776;37.496;2023-02-04T05:57:37;99552.31;;;1.20;84.12
54806;BME280;62866;55.776;37.496;2023-02-04T06:00:04;99549.97;;;1.26;83.95
54806;BME280;62866;55.776;37.496;2023-02-04T06:02:30;99550.56;;;1.30;83.73
54806;BME280;62866;55.776;37.496;2023-02-04T06:04:56;99551.25;;;1.32;83.39
54806;BME280;62866;55.776;37.496;2023-02-04T06:07:21;99561.94;;;1.30;83.36
54806;BME280;62866;55.776;37.496;2023-02-04T06:09:47;99565.25;;;1.32;83.70
54806;BME280;62866;55.776;37.496;2023-02-04T06:12:12;99565.66;;;1.28;83.26
54806;BME280;62866;55.776;37.496;2023-02-04T06:14:38;99570.75;;;1.20;83.30
54806;BME280;62866;55.776;37.496;2023-02-04T06:17:04;99571.06;;;1.26;83.22
54806;BME280;62866;55.776;37.496;2023-02-04T06:19:29;99581.91;;;1.33;83.26
54806;BME280;62866;55.776;37.496;2023-02-04T06:21:55;99583.28;;;1.37;83.29
54806;BME280;62866;55.776;37.496;2023-02-04T06:24:20;99590.63;;;1.43;83.12
54806;BME280;62866;55.776;37.496;2023-02-04T06:26:46;99580.38;;;1.40;83.43
54806;BME280;62866;55.776;37.496;2023-02-04T06:29:11;99595.22;;;1.41;83.28
54806;BME280;62866;55.776;37.496;2023-02-04T06:31:37;99591.63;;;1.42;83.62
54806;BME280;62866;55.776;37.496;2023-02-04T06:34:04;99589.38;;;1.37;83.22
54806;BME280;62866;55.776;37.496;2023-02-04T06:36:30;99593.25;;;1.24;83.17
54806;BME280;62866;55.776;37.496;2023-02-04T06:38:55;99597.00;;;1.31;83.08
54806;BME280;62866;55.776;37.496;2023-02-04T06:41:22;99602.25;;;1.31;83.75
54806;BME280;62866;55.776;37.496;2023-02-04T06:43:47;99600.34;;;1.33;83.51
54806;BME280;62866;55.776;37.496;2023-02-04T06:46:13;99602.59;;;1.47;83.44
54806;BME280;62866;55.776;37.496;2023-02-04T06:48:38;99609.56;;;1.58;82.98
54806;BME280;62866;55.776;37.496;2023-02-04T06:51:04;99606.22;;;1.65;82.49
54806;BME280;62866;55.776;37.496;2023-02-04T06:53:30;99611.34;;;1.76;82.44
54806;BME280;62866;55.776;37.496;2023-02-04T06:55:55;99614.56;;;1.70;82.06
54806;BME280;62866;55.776;37.496;2023-02-04T06:58:21;99612.91;;;1.79;81.81
54806;BME280;62866;55.776;37.496;2023-02-04T07:00:46;99618.19;;;1.88;81.95
54806;BME280;62866;55.776;37.496;2023-02-04T07:03:12;99623.72;;;1.95;81.39
54806;BME280;62866;55.776;37.496;2023-02-04T07:05:37;99616.25;;;2.00;81.48
54806;BME280;62866;55.776;37.496;2023-02-04T07:08:03;99630.25;;;2.10;81.71
54806;BME280;62866;55.776;37.496;2023-02-04T07:10:29;99627.34;;;2.04;80.77
54806;BME280;62866;55.776;37.496;2023-02-04T07:12:55;99632.75;;;2.02;81.25
54806;BME280;62866;55.776;37.496;2023-02-04T07:15:20;99633.19;;;2.07;81.30
54806;BME280;62866;55.776;37.496;2023-02-04T07:17:46;99628.59;;;2.09;81.55
54806;BME280;62866;55.776;37.496;2023-02-04T07:20:11;99638.88;;;2.22;81.72
54806;BME280;62866;55.776;37.496;2023-02-04T07:22:37;99639.56;;;2.24;81.70
54806;BME280;62866;55.776;37.496;2023-02-04T07:25:02;99648.59;;;2.31;81.76
54806;BME280;62866;55.776;37.496;2023-02-04T07:27:28;99640.94;;;2.38;81.25
54806;BME280;62866;55.776;37.496;2023-02-04T07:29:54;99642.63;;;2.39;81.01
54806;BME280;62866;55.776;37.496;2023-02-04T07:32:19;99644.56;;;2.37;80.68
54806;BME280;62866;55.776;37.496;2023-02-04T07:34:45;99637.06;;;2.32;80.36
54806;BME280;62866;55.776;37.496;2023-02-04T07:37:10;99659.56;;;2.36;80.35
54806;BME280;62866;55.776;37.496;2023-02-04T07:39:36;99658.72;;;2.36;80.64
54806;BME280;62866;55.776;37.496;2023-02-04T07:42:01;99664.81;;;2.36;80.84
54806;BME280;62866;55.776;37.496;2023-02-04T07:44:27;99662.75;;;2.30;80.64
54806;BME280;62866;55.776;37.496;2023-02-04T07:46:52;99662.19;;;2.26;80.65
54806;BME280;62866;55.776;37.496;2023-02-04T07:49:18;99663.69;;;2.10;80.48
54806;BME280;62866;55.776;37.496;2023-02-04T07:51:43;99661.22;;;1.99;80.54
54806;BME280;62866;55.776;37.496;2023-02-04T07:54:09;99669.66;;;1.92;80.89
54806;BME280;62866;55.776;37.496;2023-02-04T07:56:35;99650.22;;;1.74;81.03
54806;BME280;62866;55.776;37.496;2023-02-04T07:59:00;99673.13;;;1.83;81.27
54806;BME280;62866;55.776;37.496;2023-02-04T08:01:26;99673.13;;;1.83;81.07
54806;BME280;62866;55.776;37.496;2023-02-04T08:03:51;99671.47;;;1.82;80.98
54806;BME280;62866;55.776;37.496;2023-02-04T08:06:17;99676.44;;;1.85;80.85
54806;BME280;62866;55.776;37.496;2023-02-04T08:08:43;99678.94;;;1.87;81.12
54806;BME280;62866;55.776;37.496;2023-02-04T08:11:08;99680.91;;;1.95;81.03
54806;BME280;62866;55.776;37.496;2023-02-04T08:13:34;99678.41;;;1.93;80.78
54806;BME280;62866;55.776;37.496;2023-02-04T08:15:59;99684.38;;;1.95;80.40
54806;BME280;62866;55.776;37.496;2023-02-04T08:18:25;99679.66;;;1.89;79.90
54806;BME280;62866;55.776;37.496;2023-02-04T08:20:51;99688.53;;;1.88;80.25
54806;BME280;62866;55.776;37.496;2023-02-04T08:23:16;99679.25;;;1.84;80.17
54806;BME280;62866;55.776;37.496;2023-02-04T08:25:42;99684.63;;;1.82;80.21
54806;BME280;62866;55.776;37.496;2023-02-04T08:28:09;99685.59;;;1.81;80.30
54806;BME280;62866;55.776;37.496;2023-02-04T08:30:35;99695.56;;;1.78;80.05
54806;BME280;62866;55.776;37.496;2023-02-04T08:33:00;99684.63;;;1.73;80.50
54806;BME280;62866;55.776;37.496;2023-02-04T08:35:26;99678.75;;;1.69;80.34
54806;BME280;62866;55.776;37.496;2023-02-04T08:37:52;99686.00;;;1.67;80.10
54806;BME280;62866;55.776;37.496;2023-02-04T08:40:17;99688.34;;;1.70;80.33
54806;BME280;62866;55.776;37.496;2023-02-04T08:42:43;99688.88;;;1.64;80.03
54806;BME280;62866;55.776;37.496;2023-02-04T08:45:08;99699.25;;;1.56;80.67
54806;BME280;62866;55.776;37.496;2023-02-04T08:47:34;99697.88;;;1.62;80.70
54806;BME280;62866;55.776;37.496;2023-02-04T08:50:00;99703.31;;;1.70;80.59
54806;BME280;62866;55.776;37.496;2023-02-04T08:52:25;99698.75;;;1.72;80.55
54806;BME280;62866;55.776;37.496;2023-02-04T08:54:51;99708.50;;;1.81;80.23
54806;BME280;62866;55.776;37.496;2023-02-04T08:57:16;99706.81;;;1.80;80.07
54806;BME280;62866;55.776;37.496;2023-02-04T08:59:42;99709.44;;;1.70;79.91
54806;BME280;62866;55.776;37.496;2023-02-04T09:02:09;99707.06;;;1.67;80.33
54806;BME280;62866;55.776;37.496;2023-02-04T09:04:34;99701.13;;;1.75;80.49
54806;BME280;62866;55.776;37.496;2023-02-04T09:07:00;99707.41;;;1.93;80.12
54806;BME280;62866;55.776;37.496;2023-02-04T09:09:25;99708.91;;;1.86;79.76
54806;BME280;62866;55.776;37.496;2023-02-04T09:11:51;99705.72;;;1.82;80.26
54806;BME280;62866;55.776;37.496;2023-02-04T09:14:17;99720.44;;;1.95;79.97
54806;BME280;62866;55.776;37.496;2023-02-04T09:16:42;99717.56;;;1.98;80.63
54806;BME280;62866;55.776;37.496;2023-02-04T09:19:08;99716.13;;;1.94;80.10
54806;BME280;62866;55.776;37.496;2023-02-04T09:21:36;99730.31;;;2.02;80.48
54806;BME280;62866;55.776;37.496;2023-02-04T09:24:03;99724.94;;;2.13;80.28
54806;BME280;62866;55.776;37.496;2023-02-04T09:26:28;99725.63;;;2.35;79.76
54806;BME280;62866;55.776;37.496;2023-02-04T09:28:54;99739.13;;;2.32;79.49
54806;BME280;62866;55.776;37.496;2023-02-04T09:31:20;99727.75;;;2.31;79.31
54806;BME280;62866;55.776;37.496;2023-02-04T09:33:45;99737.19;;;2.34;79.34
54806;BME280;62866;55.776;37.496;2023-02-04T09:36:11;99733.56;;;2.35;79.26
54806;BME280;62866;55.776;37.496;2023-02-04T09:38:36;99737.88;;;2.36;79.24
54806;BME280;62866;55.776;37.496;2023-02-04T09:41:06;99718.28;;;2.38;79.18
54806;BME280;62866;55.776;37.496;2023-02-04T09:43:38;99736.22;;;2.63;78.57
54806;BME280;62866;55.776;37.496;2023-02-04T09:46:06;99739.41;;;2.77;78.36
54806;BME280;62866;55.776;37.496;2023-02-04T09:48:32;99741.06;;;2.87;78.41
54806;BME280;62866;55.776;37.496;2023-02-04T09:51:05;99743.97;;;2.94;78.28
54806;BME280;62866;55.776;37.496;2023-02-04T09:53:31;99745.38;;;2.88;78.37
54806;BME280;62866;55.776;37.496;2023-02-04T09:55:58;99731.75;;;2.93;79.02
54806;BME280;62866;55.776;37.496;2023-02-04T09:58:26;99743.41;;;3.10;78.84
54806;BME280;62866;55.776;37.496;2023-02-04T10:01:13;99749.25;;;3.03;77.26
54806;BME280;62866;55.776;37.496;2023-02-04T10:03:41;99756.50;;;2.92;77.80
54806;BME280;62866;55.776;37.496;2023-02-04T10:06:12;99747.75;;;2.82;78.26
54806;BME280;62866;55.776;37.496;2023-02-04T10:08:39;99752.31;;;2.89;78.00
54806;BME280;62866;55.776;37.496;2023-02-04T10:11:05;99750.25;;;2.74;77.81
54806;BME280;62866;55.776;37.496;2023-02-04T10:13:36;99757.22;;;2.75;78.60
54806;BME280;62866;55.776;37.496;2023-02-04T10:16:11;99751.34;;;2.81;78.54
54806;BME280;62866;55.776;37.496;2023-02-04T10:18:38;99751.22;;;2.82;77.95
54806;BME280;62866;55.776;37.496;2023-02-04T10:21:21;99761.09;;;2.90;77.96
54806;BME280;62866;55.776;37.496;2023-02-04T10:23:54;99762.19;;;2.87;77.71
54806;BME280;62866;55.776;37.496;2023-02-04T10:26:21;99767.06;;;2.92;77.82
54806;BME280;62866;55.776;37.496;2023-02-04T10:28:47;99769.97;;;2.98;77.87
54806;BME280;62866;55.776;37.496;2023-02-04T10:34:10;99756.44;;;3.11;76.93
54806;BME280;62866;55.776;37.496;2023-02-04T10:36:37;99770.50;;;3.12;77.18
54806;BME280;62866;55.776;37.496;2023-02-04T10:39:08;99778.28;;;3.13;76.49
54806;BME280;62866;55.776;37.496;2023-02-04T10:41:36;99773.97;;;3.12;76.88
54806;BME280;62866;55.776;37.496;2023-02-04T10:44:08;99777.19;;;3.06;77.57
54806;BME280;62866;55.776;37.496;2023-02-04T10:46:35;99788.31;;;3.00;77.26
54806;BME280;62866;55.776;37.496;2023-02-04T10:52:01;99771.63;;;2.71;77.70
54806;BME280;62866;55.776;37.496;2023-02-04T10:54:36;99791.53;;;2.84;77.29
54806;BME280;62866;55.776;37.496;2023-02-04T10:59:37;99789.56;;;2.77;77.69
54806;BME280;62866;55.776;37.496;2023-02-04T11:05:00;99786.50;;;2.62;77.64
54806;BME280;62866;55.776;37.496;2023-02-04T11:07:26;99797.34;;;2.59;77.40
54806;BME280;62866;55.776;37.496;2023-02-04T11:09:51;99804.84;;;2.54;77.81
54806;BME280;62866;55.776;37.496;2023-02-04T11:14:54;99797.59;;;2.46;77.88
54806;BME280;62866;55.776;37.496;2023-02-04T11:17:27;99806.19;;;2.39;78.05
54806;BME280;62866;55.776;37.496;2023-02-04T11:19:53;99796.47;;;2.29;78.29
54806;BME280;62866;55.776;37.496;2023-02-04T11:22:21;99805.91;;;2.32;78.38
54806;BME280;62866;55.776;37.496;2023-02-04T11:24:48;99804.38;;;2.29;78.37
54806;BME280;62866;55.776;37.496;2023-02-04T11:27:38;99804.94;;;2.33;78.68
54806;BME280;62866;55.776;37.496;2023-02-04T11:30:06;99804.25;;;2.31;78.73
54806;BME280;62866;55.776;37.496;2023-02-04T11:32:34;99806.72;;;2.23;78.58
54806;BME280;62866;55.776;37.496;2023-02-04T11:35:23;99812.25;;;2.20;78.56
54806;BME280;62866;55.776;37.496;2023-02-04T11:37:49;99806.81;;;2.12;78.05
54806;BME280;62866;55.776;37.496;2023-02-04T11:40:34;99801.34;;;1.94;77.60
54806;BME280;62866;55.776;37.496;2023-02-04T11:43:10;99815.66;;;1.92;77.63
54806;BME280;62866;55.776;37.496;2023-02-04T11:45:39;99824.22;;;1.84;77.63
54806;BME280;62866;55.776;37.496;2023-02-04T11:48:17;99822.97;;;1.88;76.89
54806;BME280;62866;55.776;37.496;2023-02-04T11:51:00;99826.03;;;1.93;76.86
54806;BME280;62866;55.776;37.496;2023-02-04T11:53:30;99833.69;;;1.96;76.44
54806;BME280;62866;55.776;37.496;2023-02-04T11:55:57;99825.88;;;1.85;75.79
54806;BME280;62866;55.776;37.496;2023-02-04T11:58:22;99836.13;;;1.78;75.86
54806;BME280;62866;55.776;37.496;2023-02-04T12:00:51;99843.00;;;1.70;75.29
54806;BME280;62866;55.776;37.496;2023-02-04T12:03:28;99840.28;;;1.50;76.04
54806;BME280;62866;55.776;37.496;2023-02-04T12:05:55;99845.28;;;1.53;76.43
54806;BME280;62866;55.776;37.496;2023-02-04T12:10:57;99857.06;;;1.49;77.08
54806;BME280;62866;55.776;37.496;2023-02-04T12:13:25;99855.56;;;1.57;76.96
54806;BME280;62866;55.776;37.496;2023-02-04T12:15:57;99860.38;;;1.51;76.59
54806;BME280;62866;55.776;37.496;2023-02-04T12:18:24;99852.69;;;1.39;76.95
54806;BME280;62866;55.776;37.496;2023-02-04T12:20:52;99853.63;;;1.38;77.37
54806;BME280;62866;55.776;37.496;2023-02-04T12:23:18;99869.19;;;1.41;77.21
54806;BME280;62866;55.776;37.496;2023-02-04T12:25:43;99856.91;;;1.30;77.13
54806;BME280;62866;55.776;37.496;2023-02-04T12:28:09;99867.69;;;1.27;77.27
54806;BME280;62866;55.776;37.496;2023-02-04T12:30:35;99876.09;;;1.21;77.26
54806;BME280;62866;55.776;37.496;2023-02-04T12:33:00;99876.75;;;1.13;77.88
54806;BME280;62866;55.776;37.496;2023-02-04T12:35:26;99870.56;;;1.03;77.84
54806;BME280;62866;55.776;37.496;2023-02-04T12:37:52;99883.09;;;1.11;77.92
54806;BME280;62866;55.776;37.496;2023-02-04T12:40:20;99883.16;;;1.21;78.17
54806;BME280;62866;55.776;37.496;2023-02-04T12:42:45;99880.28;;;1.24;78.02
54806;BME280;62866;55.776;37.496;2023-02-04T12:45:13;99898.22;;;1.30;77.60
54806;BME280;62866;55.776;37.496;2023-02-04T12:47:39;99892.31;;;1.17;77.97
54806;BME280;62866;55.776;37.496;2023-02-04T12:50:05;99885.72;;;1.11;78.25
54806;BME280;62866;55.776;37.496;2023-02-04T12:52:32;99900.25;;;1.26;78.13
54806;BME280;62866;55.776;37.496;2023-02-04T12:54:57;99890.50;;;1.17;77.86
54806;BME280;62866;55.776;37.496;2023-02-04T12:57:24;99901.59;;;1.21;77.98
54806;BME280;62866;55.776;37.496;2023-02-04T12:59:50;99904.56;;;1.27;77.90
54806;BME280;62866;55.776;37.496;2023-02-04T13:02:16;99910.66;;;1.28;78.04
54806;BME280;62866;55.776;37.496;2023-02-04T13:04:42;99916.91;;;1.27;77.92
54806;BME280;62866;55.776;37.496;2023-02-04T13:07:08;99919.91;;;1.22;77.93
54806;BME280;62866;55.776;37.496;2023-02-04T13:09:35;99911.41;;;1.19;77.66
54806;BME280;62866;55.776;37.496;2023-02-04T13:12:01;99917.41;;;1.21;77.62
54806;BME280;62866;55.776;37.496;2023-02-04T13:14:27;99920.56;;;1.14;77.55
54806;BME280;62866;55.776;37.496;2023-02-04T13:16:53;99926.16;;;1.21;77.72
54806;BME280;62866;55.776;37.496;2023-02-04T13:19:18;99932.00;;;1.25;77.86